Time;durP1;ratioP1;P1;durP2;ratioP2;P2;SDS_P1;SDS_P2;PMS_P1;PMS_P2;Temp;Humidity;BMP_temperature;BMP_pressure;BME280_temperature;BME280_humidity;BME280_pressure;Samples;Min_cycle;Max_cycle;Signal;HPM_P1;HPM_P2
2022/01/25 00:26:39;;;;;;;4.65;3.00;;;;;;;-7.28;44.71;95091.41;5012932;28;20527;-71
2022/01/25 00:29:15;;;;;;;4.13;3.00;;;;;;;-7.29;45.41;95123.41;5028641;28;20037;-69
2022/01/25 00:31:41;;;;;;;4.95;4.07;;;;;;;-7.28;45.49;95121.63;5028996;28;20429;-70
2022/01/25 00:34:07;;;;;;;4.55;3.25;;;;;;;-7.45;46.16;95120.91;5018112;28;20395;-73
2022/01/25 00:36:34;;;;;;;4.43;3.67;;;;;;;-7.41;46.14;95122.16;5017593;28;20054;-70
2022/01/25 00:39:00;;;;;;;3.42;2.97;;;;;;;-7.52;46.16;95122.59;5020675;28;20426;-70
2022/01/25 00:41:26;;;;;;;4.70;3.17;;;;;;;-7.53;46.53;95120.97;5023085;28;20392;-70
2022/01/25 00:43:53;;;;;;;5.20;3.75;;;;;;;-7.70;46.62;95065.16;5030631;28;20033;-70
2022/01/25 00:46:21;;;;;;;4.35;3.08;;;;;;;-7.27;46.42;95110.28;5029277;28;20044;-71
2022/01/25 00:48:50;;;;;;;4.15;3.75;;;;;;;-7.17;46.38;95116.84;5016042;28;20025;-70
2022/01/25 00:56:22;;;;;;;3.80;3.13;;;;;;;-7.58;46.91;95097.41;5022917;28;20124;-72
2022/01/25 00:58:47;;;;;;;5.07;4.03;;;;;;;-7.78;47.18;95072.97;5025117;28;20051;-71
2022/01/25 01:01:13;;;;;;;3.88;3.58;;;;;;;-7.64;46.87;95104.06;5020285;28;20601;-72
2022/01/25 01:03:38;;;;;;;10.65;3.42;;;;;;;-7.61;47.23;95095.97;5024771;28;20131;-73
2022/01/25 01:06:05;;;;;;;6.07;3.10;;;;;;;-7.56;47.02;95098.84;5026091;28;20506;-71
2022/01/25 01:08:31;;;;;;;4.75;3.30;;;;;;;-7.52;47.02;95102.69;5025261;28;20084;-70
2022/01/25 01:10:59;;;;;;;4.13;3.72;;;;;;;-7.69;46.94;95069.38;5028689;28;20246;-69
2022/01/25 01:37:48;;;;;;;3.97;3.30;;;;;;;-7.75;48.50;95080.38;5023299;28;20126;-69
2022/01/25 01:40:36;;;;;;;4.68;4.25;;;;;;;-7.81;48.84;95071.53;5019227;28;20048;-72
2022/01/25 01:48:07;;;;;;;8.73;4.85;;;;;;;-8.10;49.53;95061.81;5027032;28;20041;-70
2022/01/25 01:50:35;;;;;;;11.98;4.68;;;;;;;-8.00;49.49;95077.09;5017072;28;20041;-70
2022/01/25 01:53:04;;;;;;;5.55;5.03;;;;;;;-7.76;49.12;95082.16;5028215;28;20110;-70
2022/01/25 01:55:31;;;;;;;5.25;4.18;;;;;;;-7.86;49.11;95067.88;5015682;28;20054;-73
2022/01/25 01:57:58;;;;;;;4.25;3.75;;;;;;;-7.79;49.08;95076.53;5028420;28;20033;-70
2022/01/25 02:00:32;;;;;;;4.43;3.80;;;;;;;-7.82;49.24;95064.78;5014697;28;21033;-70
2022/01/25 02:03:00;;;;;;;5.18;3.80;;;;;;;-7.79;48.88;95058.44;5022629;28;20402;-70
2022/01/25 02:05:28;;;;;;;4.38;3.42;;;;;;;-7.70;48.40;95047.09;5012232;28;20069;-73
2022/01/25 02:07:53;;;;;;;3.28;3.05;;;;;;;-7.86;49.01;95042.81;5032317;28;20045;-71
2022/01/25 02:10:19;;;;;;;6.60;4.72;;;;;;;-7.89;49.15;95047.53;5007715;28;20090;-69
2022/01/25 02:12:48;;;;;;;5.30;4.60;;;;;;;-7.90;49.21;95051.06;5026766;28;20045;-70
2022/01/25 02:15:15;;;;;;;4.50;3.58;;;;;;;-8.05;49.73;95050.97;5021405;28;20033;-73
2022/01/25 02:23:21;;;;;;;9.88;4.82;;;;;;;-8.08;50.52;95052.13;5022896;28;20076;-71
2022/01/25 02:25:48;;;;;;;3.50;3.08;;;;;;;-8.20;50.23;95019.13;5025114;28;20037;-69
2022/01/25 02:28:14;;;;;;;5.28;2.40;;;;;;;-8.06;50.24;95028.75;5021137;28;20118;-70
2022/01/25 02:30:40;;;;;;;7.40;4.93;;;;;;;-8.21;50.66;95033.00;5020232;28;20065;-71
2022/01/25 02:33:06;;;;;;;6.60;3.65;;;;;;;-8.22;50.41;94993.47;5006600;28;20631;-70
2022/01/25 02:35:32;;;;;;;4.50;4.07;;;;;;;-7.97;50.25;95031.13;5016512;28;20041;-70
2022/01/25 02:37:57;;;;;;;10.32;3.63;;;;;;;-7.89;49.74;95001.84;5025348;28;20129;-71
2022/01/25 02:40:23;;;;;;;3.60;3.28;;;;;;;-7.76;49.53;95011.63;5019971;28;20566;-70
2022/01/25 02:42:50;;;;;;;3.92;3.63;;;;;;;-7.82;49.12;94991.66;5026935;28;20392;-72
2022/01/25 02:45:17;;;;;;;7.30;3.47;;;;;;;-7.64;49.30;95021.38;5023122;28;20037;-70
2022/01/25 02:50:26;;;;;;;4.60;3.75;;;;;;;-7.79;49.42;95006.78;5015842;28;20116;-71
2022/01/25 02:52:52;;;;;;;4.45;3.60;;;;;;;-7.94;49.77;95001.56;5023307;28;20443;-70
2022/01/25 02:55:18;;;;;;;5.15;3.63;;;;;;;-8.07;50.35;94996.94;5021094;28;20033;-71
2022/01/25 02:57:45;;;;;;;6.65;3.20;;;;;;;-7.74;50.32;95010.47;5031311;28;20033;-70
2022/01/25 03:00:12;;;;;;;7.03;3.78;;;;;;;-7.69;49.99;94997.03;5021230;28;20052;-70
2022/01/25 03:02:37;;;;;;;5.78;3.40;;;;;;;-7.73;49.62;94998.38;5017285;28;20033;-71
2022/01/25 03:05:07;;;;;;;4.50;3.30;;;;;;;-7.78;49.91;94990.31;5020913;28;20041;-70
2022/01/25 03:07:33;;;;;;;4.38;3.97;;;;;;;-7.67;49.77;95000.25;5023776;28;20348;-72
2022/01/25 03:10:00;;;;;;;7.55;4.80;;;;;;;-7.50;49.71;94996.56;5016374;28;20615;-69
2022/01/25 03:12:43;;;;;;;3.92;3.35;;;;;;;-7.65;49.67;94977.63;5034469;28;20032;-70
2022/01/25 03:17:52;;;;;;;5.80;3.85;;;;;;;-7.29;49.07;94998.53;5019820;28;20040;-73
2022/01/25 03:20:22;;;;;;;3.40;3.17;;;;;;;-7.75;49.55;94970.13;5020949;28;20090;-70
2022/01/25 03:25:20;;;;;;;5.32;3.50;;;;;;;-7.44;48.94;94977.81;5024762;28;20036;-69
2022/01/25 03:27:45;;;;;;;4.70;4.10;;;;;;;-7.33;48.91;95000.66;5019139;28;20030;-70
2022/01/25 03:30:11;;;;;;;5.25;3.80;;;;;;;-7.76;49.04;94960.75;5023341;28;20037;-72
2022/01/25 03:32:36;;;;;;;4.82;3.63;;;;;;;-7.46;49.45;95002.19;5020531;28;20047;-73
2022/01/25 03:35:02;;;;;;;4.57;3.22;;;;;;;-7.34;49.07;94985.31;5021846;28;20046;-73
2022/01/25 03:37:27;;;;;;;6.20;3.35;;;;;;;-7.45;48.61;94965.84;5022835;28;20045;-72
2022/01/25 03:39:52;;;;;;;5.15;3.53;;;;;;;-7.60;48.72;94949.50;5027659;28;20490;-74
2022/01/25 03:42:19;;;;;;;5.75;3.47;;;;;;;-7.16;48.80;94994.34;5025049;28;20794;-73
2022/01/25 03:44:44;;;;;;;4.93;3.70;;;;;;;-7.07;48.00;94976.97;5028731;28;20033;-71
2022/01/25 03:47:14;;;;;;;5.25;3.08;;;;;;;-6.92;47.77;94982.16;5028269;28;20041;-73
2022/01/25 03:49:50;;;;;;;5.00;3.33;;;;;;;-7.08;47.62;94971.00;5026783;28;20052;-72
2022/01/25 03:52:22;;;;;;;6.15;3.67;;;;;;;-7.21;47.90;94955.28;5027453;28;20032;-73
2022/01/25 03:54:48;;;;;;;4.10;2.88;;;;;;;-7.39;48.35;94978.09;5028694;28;20031;-72
2022/01/25 03:57:15;;;;;;;10.65;3.70;;;;;;;-7.35;48.00;94974.16;5022320;28;20041;-73
2022/01/25 03:59:40;;;;;;;4.45;3.85;;;;;;;-7.58;48.67;94988.91;5030394;28;20083;-72
2022/01/25 04:02:06;;;;;;;4.38;3.55;;;;;;;-7.79;49.11;94966.28;5024998;28;20699;-71
2022/01/25 04:04:33;;;;;;;4.38;2.95;;;;;;;-7.76;49.21;94990.97;5025983;28;20039;-72
2022/01/25 04:07:07;;;;;;;5.13;3.75;;;;;;;-7.83;49.58;94982.28;5022340;28;20021;-72
2022/01/25 04:09:33;;;;;;;3.85;3.55;;;;;;;-8.41;50.01;94919.88;5023500;28;20503;-72
2022/01/25 04:11:58;;;;;;;7.05;3.88;;;;;;;-7.91;49.87;94967.66;5022820;28;20405;-73
2022/01/25 04:14:24;;;;;;;6.13;3.25;;;;;;;-7.79;49.69;94980.97;5019219;28;20123;-70
2022/01/25 04:17:03;;;;;;;4.60;4.13;;;;;;;-8.07;50.01;94978.88;5026862;28;20501;-71
2022/01/25 04:27:21;;;;;;;10.43;6.82;;;;;;;-7.80;49.61;94961.25;5024490;28;20033;-71
2022/01/25 04:29:46;;;;;;;4.47;3.03;;;;;;;-7.80;49.12;94953.53;5026645;28;20407;-74
2022/01/25 04:32:13;;;;;;;9.35;3.42;;;;;;;-8.15;49.71;94945.34;5027009;28;20500;-74
2022/01/25 04:34:43;;;;;;;6.53;4.18;;;;;;;-7.69;49.01;94963.47;5027246;28;20075;-75
2022/01/25 04:55:45;;;;;;;6.47;5.30;;;;;;;-8.89;49.82;94951.03;5022350;28;20040;-73
2022/01/25 04:58:18;;;;;;;5.88;3.72;;;;;;;-9.28;50.96;94969.00;5027522;28;20106;-71
2022/01/25 05:00:45;;;;;;;10.98;4.03;;;;;;;-9.68;51.66;94970.63;5023040;28;20134;-76
2022/01/25 05:03:19;;;;;;;5.95;4.35;;;;;;;-10.04;52.17;94935.88;5027225;28;20539;-74
2022/01/25 05:05:59;;;;;;;7.47;5.40;;;;;;;-9.90;52.67;94983.34;5025444;28;20516;-73
2022/01/25 05:08:36;;;;;;;10.35;5.57;;;;;;;-10.33;53.06;94928.59;5022344;28;20615;-74
2022/01/25 05:11:14;;;;;;;5.30;4.90;;;;;;;-10.46;53.60;94945.47;5026871;28;21151;-75
2022/01/25 05:16:31;;;;;;;7.82;5.45;;;;;;;-10.67;54.52;94956.97;5025270;28;20083;-74
2022/01/25 05:22:04;;;;;;;10.57;6.20;;;;;;;-10.47;54.17;94949.78;5026006;28;20028;-73
2022/01/25 05:22:20;;;;;;;17.35;6.13;;;;;;;-10.12;53.72;94982.19;5011412;28;20136;-74
2022/01/25 05:24:47;;;;;;;7.90;5.93;;;;;;;-10.34;53.92;94962.19;5025908;28;20056;-74
2022/01/25 05:27:17;;;;;;;5.78;5.22;;;;;;;-10.39;53.75;94949.81;5021770;28;20595;-74
2022/01/25 05:29:42;;;;;;;8.45;5.07;;;;;;;-10.70;53.69;94899.91;5026515;28;20783;-75
2022/01/25 05:32:08;;;;;;;10.82;7.43;;;;;;;-10.33;53.26;94932.94;5024681;28;20049;-75
2022/01/25 05:34:34;;;;;;;4.78;4.35;;;;;;;-10.12;53.25;94971.91;5027710;28;20075;-73
2022/01/25 05:37:02;;;;;;;13.23;5.03;;;;;;;-10.11;53.00;94958.09;5026830;28;20029;-75
2022/01/25 05:39:32;;;;;;;8.55;5.15;;;;;;;-9.99;52.54;94972.25;5018483;28;20612;-72
2022/01/25 05:42:13;;;;;;;9.05;5.75;;;;;;;-10.00;52.58;94957.75;5025831;28;20068;-73
2022/01/25 05:44:54;;;;;;;7.53;5.93;;;;;;;-9.89;52.12;94949.72;5015263;28;20036;-73
2022/01/25 05:47:26;;;;;;;8.43;5.13;;;;;;;-9.77;51.90;94935.56;5011786;28;20038;-74
2022/01/25 05:49:51;;;;;;;5.82;5.22;;;;;;;-9.81;51.91;94920.56;5029318;28;20103;-74
2022/01/25 05:52:17;;;;;;;5.70;5.07;;;;;;;-10.25;51.93;94899.50;5017547;28;20530;-74
2022/01/25 05:54:42;;;;;;;7.60;5.70;;;;;;;-10.40;52.56;94916.53;5027483;28;20056;-74
2022/01/25 05:57:08;;;;;;;6.88;4.60;;;;;;;-10.06;52.45;94935.25;5015886;28;20052;-73
2022/01/25 05:59:33;;;;;;;13.43;6.47;;;;;;;-9.82;52.06;94947.28;5027108;28;20573;-75
2022/01/25 06:01:59;;;;;;;5.80;4.82;;;;;;;-10.06;52.44;94927.53;5014491;28;20655;-73
2022/01/25 06:04:25;;;;;;;13.20;6.72;;;;;;;-10.00;51.94;94918.34;5024977;28;20433;-75
2022/01/25 06:06:51;;;;;;;6.32;5.35;;;;;;;-9.77;52.24;94966.44;5016661;28;20017;-74
2022/01/25 06:09:17;;;;;;;9.52;5.53;;;;;;;-9.77;52.27;94971.59;5014237;28;20049;-73
2022/01/25 06:11:43;;;;;;;5.80;5.25;;;;;;;-9.76;51.75;94957.75;5012119;28;20493;-74
2022/01/25 06:14:08;;;;;;;6.97;6.22;;;;;;;-10.10;52.13;94956.28;5018091;28;20060;-73
2022/01/25 06:16:34;;;;;;;7.40;6.68;;;;;;;-10.02;52.18;94951.16;5027020;28;20576;-74
2022/01/25 06:19:00;;;;;;;11.70;7.75;;;;;;;-9.83;52.35;94969.66;5025007;28;20398;-74
2022/01/25 06:21:26;;;;;;;8.73;6.55;;;;;;;-9.91;51.96;94943.91;5016623;28;20032;-74
2022/01/25 06:23:52;;;;;;;15.75;7.80;;;;;;;-10.05;51.93;94931.69;5025094;28;20037;-76
2022/01/25 06:26:18;;;;;;;8.52;6.20;;;;;;;-9.75;52.20;94940.53;5020661;28;20037;-73
2022/01/25 06:28:44;;;;;;;10.23;6.75;;;;;;;-9.88;51.68;94907.59;5024433;28;20053;-74
2022/01/25 06:31:10;;;;;;;4.50;4.10;;;;;;;-9.76;51.83;94960.31;5023599;28;20117;-74
2022/01/25 06:33:38;;;;;;;10.82;7.75;;;;;;;-9.71;51.71;94945.19;5014094;28;20116;-74
2022/01/25 06:36:04;;;;;;;5.05;4.15;;;;;;;-9.53;51.55;94957.09;5021065;28;20450;-73
2022/01/25 06:38:29;;;;;;;12.68;5.28;;;;;;;-9.46;51.48;94958.06;5020131;28;20040;-74
2022/01/25 06:40:55;;;;;;;9.02;5.53;;;;;;;-9.58;51.43;94967.09;5026405;28;20065;-73
2022/01/25 06:43:20;;;;;;;10.63;5.47;;;;;;;-9.88;51.52;94950.53;5021036;28;20033;-74
2022/01/25 06:45:54;;;;;;;12.82;5.03;;;;;;;-9.98;52.13;94953.25;5019164;28;20032;-74
2022/01/25 06:48:20;;;;;;;6.57;5.93;;;;;;;-9.96;52.32;94961.63;5018810;28;20052;-74
2022/01/25 06:50:45;;;;;;;6.85;5.15;;;;;;;-9.71;52.66;94959.81;5025035;28;20033;-73
2022/01/25 06:53:11;;;;;;;16.08;6.00;;;;;;;-9.63;52.25;94946.16;5025910;28;20040;-74
2022/01/25 06:55:36;;;;;;;6.45;5.32;;;;;;;-9.52;51.65;94923.44;5014958;28;20494;-73
2022/01/25 06:58:03;;;;;;;5.20;4.30;;;;;;;-9.42;51.35;94918.13;5019194;28;20025;-73
2022/01/25 07:00:28;;;;;;;7.88;5.18;;;;;;;-9.50;51.53;94910.41;5025161;28;20028;-73
2022/01/25 07:02:54;;;;;;;7.38;4.97;;;;;;;-9.43;51.60;94948.25;5011970;28;20475;-75
2022/01/25 07:05:19;;;;;;;7.00;5.75;;;;;;;-9.44;51.78;94930.38;5020850;28;20049;-73
2022/01/25 07:07:46;;;;;;;4.60;4.22;;;;;;;-9.42;51.81;94949.84;5015669;28;20517;-74
2022/01/25 07:10:12;;;;;;;14.00;5.38;;;;;;;-9.42;52.36;94941.28;5017643;28;20037;-73
2022/01/25 07:12:37;;;;;;;6.80;5.28;;;;;;;-9.19;52.21;94949.97;5018545;28;20102;-72
2022/01/25 07:15:03;;;;;;;3.80;3.45;;;;;;;-9.36;52.57;94938.88;5021065;28;20044;-73
2022/01/25 07:17:29;;;;;;;11.32;6.60;;;;;;;-9.35;52.18;94930.19;5025601;28;20065;-73
2022/01/25 07:19:54;;;;;;;5.43;4.75;;;;;;;-9.29;51.75;94914.09;5031150;28;20409;-73
2022/01/25 07:22:19;;;;;;;8.57;5.30;;;;;;;-9.12;52.08;94935.44;5016349;28;20037;-74
2022/01/25 07:24:45;;;;;;;11.20;5.43;;;;;;;-9.08;51.59;94929.00;5029403;28;20036;-75
2022/01/25 07:27:10;;;;;;;4.82;4.05;;;;;;;-9.26;51.45;94897.47;5025393;28;20521;-74
2022/01/25 07:29:36;;;;;;;4.90;4.47;;;;;;;-9.25;52.15;94941.13;5026843;28;20505;-74
2022/01/25 07:32:01;;;;;;;4.68;4.28;;;;;;;-9.12;51.95;94938.03;5022355;28;20130;-73
2022/01/25 07:34:28;;;;;;;6.70;5.47;;;;;;;-9.08;51.84;94936.72;5030389;28;20033;-73
2022/01/25 07:36:53;;;;;;;7.45;4.45;;;;;;;-9.13;51.79;94920.94;5027276;28;20029;-74
2022/01/25 07:39:19;;;;;;;7.47;5.30;;;;;;;-9.15;51.57;94899.72;5026854;28;20519;-73
2022/01/25 07:41:46;;;;;;;9.93;5.40;;;;;;;-8.75;51.10;94932.28;5029310;28;20124;-74
2022/01/25 07:44:11;;;;;;;10.40;6.50;;;;;;;-8.71;50.96;94930.16;5022914;28;20067;-73
2022/01/25 07:46:37;;;;;;;8.27;4.65;;;;;;;-8.53;50.72;94938.47;5027555;28;20032;-75
2022/01/25 07:49:03;;;;;;;7.65;5.50;;;;;;;-8.56;50.11;94931.06;5032769;28;20021;-73
2022/01/25 07:51:30;;;;;;;8.05;5.00;;;;;;;-8.88;50.45;94870.91;5026672;28;20032;-75
2022/01/25 07:53:56;;;;;;;9.00;5.43;;;;;;;-8.52;50.55;94934.91;5022106;28;20572;-76
2022/01/25 07:56:22;;;;;;;7.93;5.53;;;;;;;-8.53;50.22;94928.94;5044582;28;20447;-77
2022/01/25 07:58:48;;;;;;;11.07;5.82;;;;;;;-8.41;50.27;94929.38;5028497;28;20034;-77
2022/01/25 08:01:16;;;;;;;7.65;5.00;;;;;;;-8.23;50.28;94940.25;5023829;28;20033;-76
2022/01/25 08:03:42;;;;;;;6.63;5.65;;;;;;;-8.12;49.67;94929.53;5027855;28;20275;-76
2022/01/25 08:06:07;;;;;;;6.88;6.18;;;;;;;-8.08;50.01;94948.06;5037896;28;20029;-77
2022/01/25 08:08:33;;;;;;;7.95;6.18;;;;;;;-7.98;49.56;94931.38;5025580;28;20061;-75
2022/01/25 08:10:59;;;;;;;9.48;5.55;;;;;;;-7.93;48.91;94933.44;5027118;28;20045;-76
2022/01/25 08:13:24;;;;;;;6.63;4.38;;;;;;;-8.06;49.42;94928.88;5027197;28;20132;-77
2022/01/25 08:15:50;;;;;;;6.28;5.45;;;;;;;-8.08;49.64;94925.63;5027563;28;20033;-75
2022/01/25 08:18:15;;;;;;;9.30;6.28;;;;;;;-8.06;49.50;94913.38;5035254;28;20045;-76
2022/01/25 08:20:40;;;;;;;9.57;7.35;;;;;;;-7.91;49.28;94931.50;5025848;28;20447;-75
2022/01/25 08:23:06;;;;;;;8.48;6.05;;;;;;;-7.87;49.27;94921.63;5026744;28;20447;-77
2022/01/25 08:25:31;;;;;;;10.43;5.03;;;;;;;-8.00;49.42;94917.81;5020322;28;21514;-75
2022/01/25 08:27:56;;;;;;;5.70;5.10;;;;;;;-7.93;49.60;94911.00;5026798;28;20021;-75
2022/01/25 08:30:22;;;;;;;6.97;5.28;;;;;;;-7.96;49.39;94918.31;5023961;28;20034;-75
2022/01/25 08:32:47;;;;;;;9.07;5.35;;;;;;;-7.90;49.53;94906.47;5031177;28;20045;-76
2022/01/25 08:35:13;;;;;;;13.80;6.28;;;;;;;-7.72;49.19;94925.06;5020983;28;20461;-76
2022/01/25 08:37:38;;;;;;;8.52;5.00;;;;;;;-7.84;49.57;94890.28;5027507;28;20048;-76
2022/01/25 08:40:06;;;;;;;8.07;6.55;;;;;;;-7.83;49.01;94877.19;5022965;28;20479;-75
2022/01/25 08:42:32;;;;;;;6.82;5.43;;;;;;;-7.48;49.03;94901.59;5025956;28;20053;-76
2022/01/25 08:44:58;;;;;;;7.95;4.28;;;;;;;-7.25;48.60;94904.94;5031614;28;20119;-75
2022/01/25 08:47:24;;;;;;;5.10;4.70;;;;;;;-7.27;47.49;94904.28;5027820;28;20122;-75
2022/01/25 08:49:50;;;;;;;14.00;5.95;;;;;;;-7.44;47.48;94881.38;5028918;28;20095;-75
2022/01/25 08:52:16;;;;;;;10.65;7.22;;;;;;;-7.14;47.75;94904.50;5016446;28;20026;-75
2022/01/25 08:54:41;;;;;;;14.52;6.72;;;;;;;-7.25;47.51;94870.53;5018727;28;20028;-76
2022/01/25 08:57:06;;;;;;;10.30;4.80;;;;;;;-7.24;47.54;94885.06;5020457;28;20162;-75
2022/01/25 08:59:32;;;;;;;14.50;8.85;;;;;;;-6.95;47.28;94897.19;5025385;28;20038;-76
2022/01/25 09:01:57;;;;;;;8.25;6.57;;;;;;;-6.65;46.81;94899.56;5024427;28;20086;-75
2022/01/25 09:04:23;;;;;;;7.68;3.70;;;;;;;-7.03;45.98;94899.88;5026028;28;20048;-76
2022/01/25 09:06:48;;;;;;;4.88;3.83;;;;;;;-7.21;45.97;94880.31;5021215;28;20528;-76
2022/01/25 09:09:14;;;;;;;11.73;5.75;;;;;;;-7.17;45.68;94863.47;5023601;28;20060;-76
2022/01/25 09:11:41;;;;;;;5.68;4.60;;;;;;;-6.97;45.69;94893.97;5027032;28;20040;-75
2022/01/25 09:14:07;;;;;;;10.10;5.30;;;;;;;-6.82;45.55;94892.16;5016852;28;20356;-76
2022/01/25 09:16:33;;;;;;;9.25;6.60;;;;;;;-6.89;45.41;94880.97;5021652;28;20081;-75
2022/01/25 09:18:59;;;;;;;5.38;4.85;;;;;;;-7.02;45.76;94875.59;5037731;28;20025;-76
2022/01/25 09:21:25;;;;;;;9.32;5.30;;;;;;;-7.10;46.18;94866.97;5020488;28;20454;-75
2022/01/25 09:23:51;;;;;;;8.80;5.43;;;;;;;-6.93;45.65;94879.72;5029669;28;20484;-76
2022/01/25 09:26:17;;;;;;;11.88;5.18;;;;;;;-6.88;45.69;94867.03;5026148;28;20034;-76
2022/01/25 09:28:43;;;;;;;9.65;5.75;;;;;;;-6.84;45.88;94876.84;5028525;28;20047;-76
2022/01/25 09:31:08;;;;;;;6.15;5.05;;;;;;;-6.91;45.95;94852.69;5022037;28;20020;-75
2022/01/25 09:33:33;;;;;;;8.00;5.32;;;;;;;-6.77;46.46;94872.53;5019979;28;20053;-71
2022/01/25 09:35:59;;;;;;;10.27;6.60;;;;;;;-6.50;46.43;94875.47;5020336;28;20766;-72
2022/01/25 09:38:25;;;;;;;8.98;4.97;;;;;;;-6.53;46.13;94848.13;5023016;28;20045;-73
2022/01/25 09:40:51;;;;;;;10.52;5.47;;;;;;;-6.43;45.77;94864.19;5020005;28;20437;-71
2022/01/25 09:43:19;;;;;;;7.13;5.10;;;;;;;-6.35;45.72;94873.63;5017454;28;20047;-72
2022/01/25 09:45:45;;;;;;;9.35;6.75;;;;;;;-6.41;45.57;94864.81;5020670;28;20032;-72
2022/01/25 09:48:11;;;;;;;18.08;5.30;;;;;;;-6.32;45.37;94863.72;5020574;28;20037;-72
2022/01/25 09:50:37;;;;;;;8.13;5.82;;;;;;;-6.52;45.54;94847.16;5020018;28;20479;-73
2022/01/25 09:53:04;;;;;;;5.90;5.15;;;;;;;-6.39;45.75;94859.44;5022867;28;20359;-72
2022/01/25 09:55:41;;;;;;;10.55;6.32;;;;;;;-6.55;45.74;94829.41;5023713;28;20126;-71
2022/01/25 09:58:08;;;;;;;6.07;5.47;;;;;;;-6.81;46.40;94819.56;5021854;28;20039;-71
2022/01/25 10:00:35;;;;;;;11.70;5.90;;;;;;;-6.55;46.15;94846.72;5021628;28;20028;-71
2022/01/25 10:05:44;;;;;;;7.68;5.75;;;;;;;-6.41;46.30;94849.28;5015842;28;20040;-72
2022/01/25 10:08:20;;;;;;;7.75;5.47;;;;;;;-6.40;46.12;94840.53;5037659;28;20057;-72
2022/01/25 10:10:57;;;;;;;12.27;5.95;;;;;;;-6.47;46.28;94837.06;5021324;28;20041;-72
2022/01/25 10:13:48;;;;;;;8.45;5.35;;;;;;;-6.28;46.07;94836.47;5026455;28;20043;-71
2022/01/25 10:16:17;;;;;;;10.38;5.65;;;;;;;-6.48;46.76;94832.88;5021226;28;20040;-73
2022/01/25 10:18:51;;;;;;;8.20;5.13;;;;;;;-6.33;46.58;94841.38;5020992;28;20036;-71
2022/01/25 10:21:26;;;;;;;8.50;5.75;;;;;;;-6.26;45.98;94813.78;5023651;28;20037;-72
2022/01/25 10:24:27;;;;;;;9.45;6.78;;;;;;;-6.27;46.57;94825.13;5027093;28;20378;-72
2022/01/25 10:26:55;;;;;;;11.82;7.20;;;;;;;-6.41;46.52;94833.75;5026610;28;20640;-71
2022/01/25 10:29:24;;;;;;;9.00;6.38;;;;;;;-6.42;46.73;94785.53;5019171;28;20045;-71
2022/01/25 10:31:53;;;;;;;8.20;6.40;;;;;;;-6.32;47.09;94824.06;5019800;28;20128;-72
2022/01/25 10:34:32;;;;;;;7.30;6.15;;;;;;;-6.40;46.80;94819.81;5026859;28;20048;-74
2022/01/25 10:36:59;;;;;;;17.95;7.45;;;;;;;-6.33;46.99;94807.72;5028303;28;20021;-72
2022/01/25 10:39:32;;;;;;;11.68;7.05;;;;;;;-6.27;46.90;94807.00;5016048;28;20021;-71
2022/01/25 10:42:09;;;;;;;9.18;5.45;;;;;;;-6.11;47.31;94808.53;5005313;28;20041;-72
2022/01/25 10:45:06;;;;;;;15.27;6.93;;;;;;;-6.48;47.10;94737.09;5020047;28;20103;-72
2022/01/25 10:47:49;;;;;;;11.80;7.60;;;;;;;-5.89;47.47;94806.72;5002016;28;20049;-72
2022/01/25 10:50:15;;;;;;;10.30;5.93;;;;;;;-6.15;47.65;94788.38;5024557;28;20029;-71
2022/01/25 10:52:41;;;;;;;10.52;6.50;;;;;;;-5.98;47.08;94794.88;5022620;28;20124;-72
2022/01/25 10:55:07;;;;;;;9.85;5.93;;;;;;;-6.00;47.13;94786.50;5037404;28;20058;-73
2022/01/25 10:57:32;;;;;;;8.60;5.82;;;;;;;-5.80;47.35;94784.84;5021246;28;20057;-72
2022/01/25 11:00:07;;;;;;;10.65;7.50;;;;;;;-6.00;47.21;94752.81;5022493;28;20113;-72
2022/01/25 11:02:33;;;;;;;14.23;8.18;;;;;;;-5.75;46.71;94783.31;5023908;28;20107;-72
2022/01/25 11:05:09;;;;;;;14.13;7.07;;;;;;;-5.42;46.57;94773.13;5022887;28;20037;-72
2022/01/25 11:07:45;;;;;;;10.25;6.32;;;;;;;-5.37;45.76;94770.00;5023782;28;20095;-72
2022/01/25 11:10:20;;;;;;;9.38;7.22;;;;;;;-5.54;45.89;94771.28;5021525;28;20119;-72
2022/01/25 11:13:01;;;;;;;12.25;7.72;;;;;;;-5.57;45.88;94754.34;5020789;28;20544;-72
2022/01/25 11:15:26;;;;;;;14.50;8.55;;;;;;;-5.56;45.75;94771.47;5023364;28;20174;-72
2022/01/25 11:17:52;;;;;;;10.45;6.68;;;;;;;-5.73;46.21;94743.44;5021013;28;20623;-72
2022/01/25 11:20:17;;;;;;;8.80;7.07;;;;;;;-5.93;46.39;94751.91;5024680;28;20583;-74
2022/01/25 11:22:44;;;;;;;21.45;8.85;;;;;;;-6.03;47.70;94763.56;5023056;28;20459;-72
2022/01/25 11:25:10;;;;;;;12.32;8.68;;;;;;;-6.01;48.02;94749.47;5021825;28;20099;-71
2022/01/25 11:27:37;;;;;;;12.40;8.07;;;;;;;-5.85;48.03;94745.75;5024290;28;20492;-72
2022/01/25 11:30:17;;;;;;;13.00;6.38;;;;;;;-5.94;48.48;94739.94;5026396;28;20120;-73
2022/01/25 11:32:47;;;;;;;16.48;8.52;;;;;;;-6.04;48.58;94720.53;5021588;28;20034;-72
2022/01/25 11:35:15;;;;;;;11.57;7.28;;;;;;;-5.86;48.12;94744.19;5019336;28;20037;-72
2022/01/25 11:37:47;;;;;;;10.73;6.82;;;;;;;-6.04;48.43;94723.91;5019167;28;20107;-72
2022/01/25 11:40:27;;;;;;;12.30;8.05;;;;;;;-5.58;48.36;94744.94;5017269;28;20032;-72
2022/01/25 11:42:57;;;;;;;9.27;6.28;;;;;;;-5.59;48.11;94727.78;5015257;28;20086;-72
2022/01/25 11:45:35;;;;;;;9.88;7.05;;;;;;;-5.29;47.89;94724.94;5021925;28;20068;-73
2022/01/25 11:48:01;;;;;;;18.80;9.90;;;;;;;-5.17;47.31;94723.41;5018360;28;20615;-73
2022/01/25 11:50:32;;;;;;;10.70;7.45;;;;;;;-5.46;47.06;94678.59;5012779;28;20085;-73
2022/01/25 11:53:07;;;;;;;13.63;8.43;;;;;;;-5.08;46.67;94717.88;5017582;28;20096;-71
2022/01/25 11:55:36;;;;;;;11.85;6.53;;;;;;;-5.23;46.84;94688.69;5014786;28;20045;-72
2022/01/25 11:58:11;;;;;;;16.52;8.07;;;;;;;-5.01;46.49;94715.28;5018047;28;20033;-72
2022/01/25 12:00:52;;;;;;;13.10;8.05;;;;;;;-5.04;46.69;94708.69;5018060;28;20063;-72
2022/01/25 12:03:37;;;;;;;11.85;8.05;;;;;;;-5.10;46.85;94719.03;5018948;28;20056;-73
2022/01/25 12:06:10;;;;;;;;;;;;;;;-4.91;46.32;94721.69;5019011;28;20131;-72
2022/01/25 12:11:36;;;;;;;;;;;;;;;-4.86;46.55;94708.13;5015254;28;20564;-73
2022/01/25 12:14:26;;;;;;;13.07;5.30;;;;;;;-4.91;46.37;94703.53;5024369;28;19963;-72
2022/01/25 12:17:16;;;;;;;10.65;6.95;;;;;;;-4.93;46.24;94679.56;5025546;28;20484;-72
2022/01/25 12:20:17;;;;;;;16.17;8.15;;;;;;;-4.62;46.16;94696.41;5018715;28;20041;-72
2022/01/25 12:22:47;;;;;;;13.20;6.72;;;;;;;-4.56;46.42;94686.03;5026779;28;20064;-72
2022/01/25 12:27:43;;;;;;;16.75;7.45;;;;;;;-4.59;45.81;94686.44;5023900;28;20918;-72
2022/01/25 12:30:14;;;;;;;13.55;7.65;;;;;;;-4.72;46.17;94668.22;5025968;28;20456;-73
2022/01/25 12:33:02;;;;;;;16.00;8.88;;;;;;;-4.45;46.06;94684.66;5024414;28;20610;-72
2022/01/25 12:35:40;;;;;;;9.70;6.85;;;;;;;-4.43;45.51;94680.03;5025641;28;20464;-73
2022/01/25 12:38:06;;;;;;;13.45;7.38;;;;;;;-4.78;45.93;94656.03;5025879;28;20037;-72
2022/01/25 12:40:35;;;;;;;17.15;10.23;;;;;;;-4.56;45.83;94643.69;5023709;28;20033;-72
2022/01/25 12:43:05;;;;;;;15.98;9.52;;;;;;;-4.27;45.52;94648.47;5021628;28;20052;-72
2022/01/25 12:45:43;;;;;;;17.75;8.63;;;;;;;-4.32;45.83;94666.47;5023867;28;20583;-71
2022/01/25 12:48:12;;;;;;;15.55;7.82;;;;;;;-4.08;45.43;94657.25;5020822;28;20045;-72
2022/01/25 12:50:40;;;;;;;18.35;9.10;;;;;;;-3.92;45.08;94635.22;5025306;28;20029;-72
2022/01/25 12:53:07;;;;;;;23.30;8.35;;;;;;;-3.80;44.13;94638.78;5027026;28;20521;-72
2022/01/25 12:55:40;;;;;;;14.70;8.73;;;;;;;-3.66;44.08;94648.94;5017563;28;20049;-73
2022/01/25 12:58:07;;;;;;;18.15;9.65;;;;;;;-3.66;43.70;94627.38;5024051;28;20029;-72
2022/01/25 13:00:36;;;;;;;10.70;6.35;;;;;;;-3.95;43.78;94612.25;5024754;28;20029;-72
2022/01/25 13:03:16;;;;;;;13.02;7.93;;;;;;;-3.81;44.28;94647.63;5021291;28;20044;-72
2022/01/25 13:05:45;;;;;;;14.77;8.77;;;;;;;-3.60;43.76;94648.13;5037266;28;20037;-72
2022/01/25 13:08:35;;;;;;;15.00;7.72;;;;;;;-3.85;43.55;94625.59;5025759;28;20093;-74
2022/01/25 13:11:21;;;;;;;17.95;11.18;;;;;;;-3.89;44.03;94638.22;5020729;28;20048;-72
2022/01/25 13:13:59;;;;;;;;;;;;;;;-3.88;44.01;94639.03;5024144;28;20047;-73
2022/01/25 13:16:55;;;;;;;12.05;7.28;;;;;;;-3.95;44.16;94633.81;5019716;28;19928;-71
2022/01/25 13:19:26;;;;;;;12.03;6.93;;;;;;;-4.02;44.38;94633.84;5002967;28;20049;-74
2022/01/25 13:22:07;;;;;;;9.88;7.07;;;;;;;-4.03;44.57;94611.47;5022213;28;20140;-72
2022/01/25 13:24:41;;;;;;;17.48;7.72;;;;;;;-3.90;44.43;94623.63;5032126;28;20052;-72
2022/01/25 13:27:11;;;;;;;18.88;9.10;;;;;;;-3.81;44.59;94632.81;5017869;28;20069;-73
2022/01/25 13:32:30;;;;;;;15.07;7.70;;;;;;;-4.07;44.60;94640.66;5000396;28;20068;-71
2022/01/25 13:35:02;;;;;;;15.57;8.40;;;;;;;-3.81;44.45;94639.81;5024925;28;20069;-72